Time;durP1;ratioP1;P1;durP2;ratioP2;P2;SDS_P1;SDS_P2;PMS_P1;PMS_P2;Temp;Humidity;BMP_temperature;BMP_pressure;BME280_temperature;BME280_humidity;BME280_pressure;Samples;Min_cycle;Max_cycle;Signal;HPM_P1;HPM_P2
2022/07/26 00:01:10;;;;;;;3.23;1.93;;;;;;;;;;5031325;28;20441;-50
2022/07/26 00:03:36;;;;;;;1.90;1.33;;;;;;;;;;5033992;28;20426;-52
2022/07/26 00:06:02;;;;;;;1.60;1.20;;;;;;;;;;5039165;28;20945;-52
2022/07/26 00:08:28;;;;;;;1.83;1.70;;;;;;;;;;5030970;28;20445;-51
2022/07/26 00:10:54;;;;;;;2.13;1.50;;;;;;;;;;5040192;28;20425;-51
2022/07/26 00:13:21;;;;;;;1.67;1.50;;;;;;;;;;5035541;28;20433;-52
2022/07/26 00:15:48;;;;;;;4.30;1.47;;;;;;;;;;5030034;28;20503;-51
2022/07/26 00:18:14;;;;;;;1.27;1.17;;;;;;;;;;5034692;28;20453;-51
2022/07/26 00:20:40;;;;;;;2.47;1.37;;;;;;;;;;5045350;28;20545;-51
2022/07/26 00:23:07;;;;;;;1.93;1.70;;;;;;;;;;5037128;28;20770;-51
2022/07/26 00:25:33;;;;;;;2.40;1.70;;;;;;;;;;5015222;28;20385;-52
2022/07/26 00:27:59;;;;;;;1.90;1.43;;;;;;;;;;5034510;28;20435;-51
2022/07/26 00:30:25;;;;;;;2.90;1.70;;;;;;;;;;5034734;28;20424;-51
2022/07/26 00:32:51;;;;;;;5.10;1.90;;;;;;;;;;5042298;28;20947;-51
2022/07/26 00:35:17;;;;;;;5.90;1.50;;;;;;;;;;5052986;28;20835;-50
2022/07/26 00:37:44;;;;;;;3.37;2.10;;;;;;;;;;5037438;28;20418;-52
2022/07/26 00:40:10;;;;;;;2.63;1.40;;;;;;;;;;5034076;28;20432;-50
2022/07/26 00:42:36;;;;;;;4.90;1.67;;;;;;;;;;5036955;28;20494;-51
2022/07/26 00:45:03;;;;;;;5.93;1.97;;;;;;;;;;5039131;28;20474;-51
2022/07/26 00:47:29;;;;;;;2.20;1.80;;;;;;;;;;5041910;28;20453;-51
2022/07/26 00:49:55;;;;;;;1.37;1.27;;;;;;;;;;5039929;28;20482;-50
2022/07/26 00:52:21;;;;;;;4.40;1.50;;;;;;;;;;5043235;28;20468;-51
2022/07/26 00:54:47;;;;;;;4.90;2.00;;;;;;;;;;5033461;28;20476;-51
2022/07/26 00:57:14;;;;;;;7.03;3.53;;;;;;;;;;5043232;28;20479;-51
2022/07/26 00:59:40;;;;;;;4.33;1.60;;;;;;;;;;5034372;28;20434;-51
2022/07/26 01:02:06;;;;;;;3.07;2.10;;;;;;;;;;5037659;28;20440;-52
2022/07/26 01:04:32;;;;;;;2.53;2.27;;;;;;;;;;5033374;28;20406;-51
2022/07/26 01:06:58;;;;;;;5.83;3.07;;;;;;;;;;5047905;28;20410;-50
2022/07/26 01:09:25;;;;;;;2.53;1.90;;;;;;;;;;5032654;28;20978;-51
2022/07/26 01:11:51;;;;;;;1.87;1.60;;;;;;;;;;5035671;28;20430;-51
2022/07/26 01:14:20;;;;;;;7.30;2.10;;;;;;;;;;5032295;28;20425;-51
2022/07/26 01:16:46;;;;;;;2.20;2.00;;;;;;;;;;5017137;28;20821;-50
2022/07/26 01:19:12;;;;;;;3.30;2.20;;;;;;;;;;5033340;28;20442;-51
2022/07/26 01:21:38;;;;;;;3.53;1.90;;;;;;;;;;5046500;28;20463;-52
2022/07/26 01:24:05;;;;;;;2.80;2.00;;;;;;;;;;5032644;28;20425;-50
2022/07/26 01:26:31;;;;;;;2.47;2.00;;;;;;;;;;5035239;28;20444;-51
2022/07/26 01:28:57;;;;;;;3.40;1.60;;;;;;;;;;5040531;28;20428;-51
2022/07/26 01:31:23;;;;;;;2.43;2.20;;;;;;;;;;5032958;28;20419;-51
2022/07/26 01:33:49;;;;;;;4.80;2.17;;;;;;;;;;5044571;28;20481;-50
2022/07/26 01:36:15;;;;;;;10.50;2.20;;;;;;;;;;5032194;28;20900;-51
2022/07/26 01:38:41;;;;;;;4.93;2.53;;;;;;;;;;5045461;28;20539;-52
2022/07/26 01:41:08;;;;;;;4.73;1.97;;;;;;;;;;5050350;28;20435;-50
2022/07/26 01:43:34;;;;;;;3.67;2.10;;;;;;;;;;5039441;28;20446;-51
2022/07/26 01:46:00;;;;;;;2.07;1.87;;;;;;;;;;5038809;28;20889;-50
2022/07/26 01:48:26;;;;;;;6.70;2.53;;;;;;;;;;5036029;28;20953;-51
2022/07/26 01:50:52;;;;;;;6.00;2.33;;;;;;;;;;5037193;28;20946;-50
2022/07/26 01:53:18;;;;;;;3.00;2.03;;;;;;;;;;5038135;28;20421;-51
2022/07/26 01:55:44;;;;;;;2.87;2.20;;;;;;;;;;5039750;28;20471;-50
2022/07/26 01:58:10;;;;;;;2.90;2.00;;;;;;;;;;5038894;28;20487;-50
2022/07/26 02:00:36;;;;;;;2.60;2.40;;;;;;;;;;5047490;28;20473;-51
2022/07/26 02:03:02;;;;;;;7.47;2.10;;;;;;;;;;5032668;28;20414;-52
2022/07/26 02:05:28;;;;;;;10.73;3.43;;;;;;;;;;5040842;28;20903;-52
2022/07/26 02:07:54;;;;;;;1.60;1.50;;;;;;;;;;5043412;28;20543;-50
2022/07/26 02:10:20;;;;;;;5.43;2.33;;;;;;;;;;5050314;28;20443;-51
2022/07/26 02:12:46;;;;;;;2.87;2.30;;;;;;;;;;5041043;28;20432;-52
2022/07/26 02:15:13;;;;;;;3.70;1.97;;;;;;;;;;5035658;28;20771;-50
2022/07/26 02:17:39;;;;;;;3.93;2.40;;;;;;;;;;5033511;28;20418;-51
2022/07/26 02:20:06;;;;;;;4.77;3.30;;;;;;;;;;5037342;28;20426;-51
2022/07/26 02:22:32;;;;;;;2.43;2.20;;;;;;;;;;5032067;28;20549;-51
2022/07/26 02:24:58;;;;;;;7.43;2.50;;;;;;;;;;5047549;28;20436;-51
2022/07/26 02:27:24;;;;;;;6.97;2.90;;;;;;;;;;5045385;28;20414;-50
2022/07/26 02:29:50;;;;;;;3.07;2.20;;;;;;;;;;5035889;28;20467;-52
2022/07/26 02:32:16;;;;;;;15.47;2.90;;;;;;;;;;5031694;28;20418;-50
2022/07/26 02:34:42;;;;;;;4.60;2.50;;;;;;;;;;5043244;28;20474;-52
2022/07/26 02:37:08;;;;;;;9.80;2.17;;;;;;;;;;5031325;28;20447;-51
2022/07/26 02:39:34;;;;;;;3.43;1.87;;;;;;;;;;5031554;28;20469;-51
2022/07/26 02:42:01;;;;;;;3.90;2.00;;;;;;;;;;5031570;28;20479;-50
2022/07/26 02:44:28;;;;;;;4.37;2.23;;;;;;;;;;5031752;28;20987;-50
2022/07/26 02:46:54;;;;;;;4.83;1.80;;;;;;;;;;5050676;28;20890;-50
2022/07/26 02:49:20;;;;;;;2.50;1.80;;;;;;;;;;5032068;28;20908;-50
2022/07/26 02:51:46;;;;;;;4.50;2.03;;;;;;;;;;5031577;28;20939;-51
2022/07/26 02:54:13;;;;;;;4.23;2.10;;;;;;;;;;5044976;28;20801;-51
2022/07/26 02:56:39;;;;;;;4.03;1.77;;;;;;;;;;5030712;28;20976;-51
2022/07/26 02:59:06;;;;;;;7.17;2.37;;;;;;;;;;5030387;28;20559;-51
2022/07/26 03:01:34;;;;;;;5.20;1.90;;;;;;;;;;5030876;28;20433;-51
2022/07/26 03:04:00;;;;;;;5.43;2.10;;;;;;;;;;5030625;28;20435;-51
2022/07/26 03:06:26;;;;;;;7.43;2.00;;;;;;;;;;5031141;28;20425;-50
2022/07/26 03:08:52;;;;;;;3.20;2.30;;;;;;;;;;5043537;28;20459;-52
2022/07/26 03:11:17;;;;;;;5.40;2.10;;;;;;;;;;5038201;28;20474;-50
2022/07/26 03:13:43;;;;;;;6.37;2.00;;;;;;;;;;5036204;28;20400;-50
2022/07/26 03:16:10;;;;;;;3.30;1.77;;;;;;;;;;5040528;28;20477;-50
2022/07/26 03:18:36;;;;;;;8.83;2.13;;;;;;;;;;5030057;28;20458;-52
2022/07/26 03:21:02;;;;;;;4.60;2.30;;;;;;;;;;5047054;28;20442;-51
2022/07/26 03:23:32;;;;;;;9.60;2.40;;;;;;;;;;5037302;28;20391;-50
2022/07/26 03:25:58;;;;;;;8.13;2.70;;;;;;;;;;5031919;28;20937;-50
2022/07/26 03:28:24;;;;;;;8.27;2.60;;;;;;;;;;5030678;28;20457;-50
2022/07/26 03:30:49;;;;;;;9.00;2.53;;;;;;;;;;5037672;28;20432;-50
2022/07/26 03:33:15;;;;;;;4.33;2.30;;;;;;;;;;5030528;28;20420;-50
2022/07/26 03:35:41;;;;;;;7.17;2.80;;;;;;;;;;5033000;28;20459;-51
2022/07/26 03:38:07;;;;;;;3.60;2.40;;;;;;;;;;5030496;28;20818;-51
2022/07/26 03:40:33;;;;;;;4.00;2.60;;;;;;;;;;5031829;28;20448;-52
2022/07/26 03:43:00;;;;;;;12.70;3.23;;;;;;;;;;5046032;28;20420;-50
2022/07/26 03:45:26;;;;;;;3.53;2.60;;;;;;;;;;5046158;28;20428;-51
2022/07/26 03:47:52;;;;;;;3.07;2.63;;;;;;;;;;5037482;28;20919;-51
2022/07/26 03:50:18;;;;;;;6.50;2.63;;;;;;;;;;5045612;28;20435;-51
2022/07/26 03:52:44;;;;;;;9.13;2.40;;;;;;;;;;5030595;28;20396;-50
2022/07/26 03:57:56;;;;;;;9.33;3.40;;;;;;;;;;5033867;28;20431;-51
2022/07/26 04:00:22;;;;;;;7.07;3.43;;;;;;;;;;5040707;28;20661;-51
2022/07/26 04:02:48;;;;;;;7.70;2.60;;;;;;;;;;5042195;28;20822;-50
2022/07/26 04:05:14;;;;;;;6.27;3.60;;;;;;;;;;5040493;28;20434;-51
2022/07/26 04:07:46;;;;;;;5.53;3.33;;;;;;;;;;5046232;28;20917;-51
2022/07/26 04:10:12;;;;;;;6.57;3.27;;;;;;;;;;5054402;28;20377;-51
2022/07/26 04:12:38;;;;;;;8.07;4.07;;;;;;;;;;5049210;28;20773;-51
2022/07/26 04:15:05;;;;;;;7.80;3.70;;;;;;;;;;5040558;28;20387;-51
2022/07/26 04:17:38;;;;;;;6.47;3.90;;;;;;;;;;5038211;28;20789;-51
2022/07/26 04:20:05;;;;;;;7.50;3.83;;;;;;;;;;5049296;28;20453;-51
2022/07/26 04:22:31;;;;;;;10.10;3.43;;;;;;;;;;5048406;28;20413;-51
2022/07/26 04:24:57;;;;;;;5.83;3.10;;;;;;;;;;5043510;28;20402;-52
2022/07/26 04:27:24;;;;;;;8.80;4.60;;;;;;;;;;5042478;28;20427;-52
2022/07/26 04:29:50;;;;;;;5.90;3.97;;;;;;;;;;5041908;28;20923;-51
2022/07/26 04:32:16;;;;;;;5.13;3.10;;;;;;;;;;5038980;28;20418;-51
2022/07/26 04:34:41;;;;;;;4.40;3.10;;;;;;;;;;5039296;28;20415;-52
2022/07/26 04:37:07;;;;;;;4.63;2.90;;;;;;;;;;5033858;28;20952;-51
2022/07/26 04:39:33;;;;;;;13.80;3.33;;;;;;;;;;5032157;28;20522;-51
2022/07/26 04:41:59;;;;;;;6.80;2.90;;;;;;;;;;5033917;28;20398;-51
2022/07/26 04:44:25;;;;;;;5.60;3.23;;;;;;;;;;5037537;28;20443;-52
2022/07/26 04:46:51;;;;;;;8.00;3.63;;;;;;;;;;5054185;28;20386;-52
2022/07/26 04:49:17;;;;;;;9.07;3.30;;;;;;;;;;5052089;28;20421;-51
2022/07/26 04:51:43;;;;;;;8.30;3.60;;;;;;;;;;5053886;28;20374;-51
2022/07/26 04:54:09;;;;;;;9.17;3.10;;;;;;;;;;5051633;28;20777;-50
2022/07/26 04:56:35;;;;;;;6.13;3.00;;;;;;;;;;5052753;28;20453;-50
2022/07/26 04:59:01;;;;;;;6.03;3.20;;;;;;;;;;5048555;28;20947;-51
2022/07/26 05:01:27;;;;;;;5.60;3.23;;;;;;;;;;5051813;28;20427;-51
2022/07/26 05:03:53;;;;;;;5.57;2.77;;;;;;;;;;5052102;28;20431;-50
2022/07/26 05:06:19;;;;;;;9.23;3.47;;;;;;;;;;5053332;28;20554;-52
2022/07/26 05:08:45;;;;;;;6.17;3.60;;;;;;;;;;5050815;28;20812;-51
2022/07/26 05:11:11;;;;;;;4.33;3.00;;;;;;;;;;5052893;28;20952;-51
2022/07/26 05:13:37;;;;;;;5.53;3.17;;;;;;;;;;5048868;28;21013;-52
2022/07/26 05:16:03;;;;;;;8.00;3.70;;;;;;;;;;5049758;28;20471;-51
2022/07/26 05:18:30;;;;;;;5.57;2.70;;;;;;;;;;5025856;28;20475;-50
2022/07/26 05:20:56;;;;;;;4.00;3.30;;;;;;;;;;5052324;28;20453;-51
2022/07/26 05:23:22;;;;;;;3.50;3.20;;;;;;;;;;5050984;28;20470;-52
2022/07/26 05:25:48;;;;;;;6.70;3.00;;;;;;;;;;5049021;28;20459;-52
2022/07/26 05:28:14;;;;;;;7.40;3.93;;;;;;;;;;5053244;28;20503;-50
2022/07/26 05:30:40;;;;;;;7.47;3.47;;;;;;;;;;5052802;28;20986;-51
2022/07/26 05:33:06;;;;;;;11.00;3.57;;;;;;;;;;5052146;28;20840;-50
2022/07/26 05:35:32;;;;;;;4.97;2.63;;;;;;;;;;5054024;28;20501;-51
2022/07/26 05:37:58;;;;;;;8.10;3.03;;;;;;;;;;5048326;28;20430;-51
2022/07/26 05:40:24;;;;;;;5.50;2.93;;;;;;;;;;5053623;28;20402;-51
2022/07/26 05:42:50;;;;;;;6.03;3.30;;;;;;;;;;5052237;28;20879;-51
2022/07/26 05:45:16;;;;;;;5.43;3.50;;;;;;;;;;5050133;28;20432;-52
2022/07/26 05:47:42;;;;;;;5.70;3.27;;;;;;;;;;5050182;28;20473;-52
2022/07/26 05:50:08;;;;;;;5.00;3.60;;;;;;;;;;5052937;28;20414;-51
2022/07/26 05:52:34;;;;;;;4.40;3.03;;;;;;;;;;5052056;28;20807;-51
2022/07/26 05:55:00;;;;;;;4.60;2.87;;;;;;;;;;5052471;28;20430;-52
2022/07/26 05:57:26;;;;;;;5.37;3.60;;;;;;;;;;5051358;28;20444;-52
2022/07/26 05:59:52;;;;;;;6.77;3.67;;;;;;;;;;5048672;28;20539;-51
2022/07/26 06:02:18;;;;;;;6.93;2.97;;;;;;;;;;5050605;28;20429;-52
2022/07/26 06:04:44;;;;;;;5.13;3.20;;;;;;;;;;5052476;28;20464;-52
2022/07/26 06:07:10;;;;;;;5.67;3.30;;;;;;;;;;5051331;28;21612;-51
2022/07/26 06:09:36;;;;;;;6.03;3.13;;;;;;;;;;5052659;28;20421;-51
2022/07/26 06:12:02;;;;;;;8.33;3.80;;;;;;;;;;5051118;28;20431;-51
2022/07/26 06:14:28;;;;;;;7.00;3.27;;;;;;;;;;5052940;28;20413;-51
2022/07/26 06:16:55;;;;;;;3.20;2.90;;;;;;;;;;5051517;28;20456;-52
2022/07/26 06:19:21;;;;;;;7.63;3.17;;;;;;;;;;5052086;28;20437;-51
2022/07/26 06:21:47;;;;;;;4.80;3.30;;;;;;;;;;5052933;28;20440;-50
2022/07/26 06:24:13;;;;;;;7.47;3.20;;;;;;;;;;5048333;28;20403;-51
2022/07/26 06:26:39;;;;;;;5.83;3.70;;;;;;;;;;5050723;28;20428;-51
2022/07/26 06:29:05;;;;;;;7.17;3.37;;;;;;;;;;5052189;28;20437;-51
2022/07/26 06:31:31;;;;;;;4.60;3.77;;;;;;;;;;5052694;28;20409;-52
2022/07/26 06:33:57;;;;;;;8.57;3.80;;;;;;;;;;5051280;28;20436;-52
2022/07/26 06:36:23;;;;;;;5.87;4.17;;;;;;;;;;5052539;28;20850;-51
2022/07/26 06:38:49;;;;;;;12.67;4.10;;;;;;;;;;5047604;28;20432;-51
2022/07/26 06:41:15;;;;;;;12.73;4.60;;;;;;;;;;5052389;28;20885;-51
2022/07/26 06:43:41;;;;;;;9.00;4.37;;;;;;;;;;5050834;28;20426;-51
2022/07/26 06:46:07;;;;;;;8.70;4.43;;;;;;;;;;5052348;28;20893;-50
2022/07/26 06:48:34;;;;;;;9.50;5.50;;;;;;;;;;5050769;28;20827;-52
2022/07/26 06:51:00;;;;;;;7.90;4.60;;;;;;;;;;5052457;28;20402;-51
2022/07/26 06:53:26;;;;;;;7.83;4.93;;;;;;;;;;5051195;28;20452;-51
2022/07/26 06:55:52;;;;;;;9.40;5.13;;;;;;;;;;5047890;28;20502;-51
2022/07/26 06:58:18;;;;;;;7.10;6.40;;;;;;;;;;5050044;28;20493;-52
2022/07/26 07:00:44;;;;;;;10.90;6.30;;;;;;;;;;5052162;28;20466;-51
2022/07/26 07:03:10;;;;;;;11.77;7.70;;;;;;;;;;5050738;28;20425;-51
2022/07/26 07:05:36;;;;;;;16.20;7.67;;;;;;;;;;5048668;28;20432;-51
2022/07/26 07:08:02;;;;;;;13.00;8.30;;;;;;;;;;5052023;28;20401;-52
2022/07/26 07:10:28;;;;;;;9.67;7.40;;;;;;;;;;5046850;28;22170;-52
2022/07/26 07:12:54;;;;;;;14.20;7.40;;;;;;;;;;5036316;28;20645;-51
2022/07/26 07:15:19;;;;;;;11.50;8.00;;;;;;;;;;5031883;28;20410;-50
2022/07/26 07:17:47;;;;;;;17.50;8.40;;;;;;;;;;5044663;28;20458;-51
2022/07/26 07:20:13;;;;;;;14.83;8.23;;;;;;;;;;5050762;28;20421;-51
2022/07/26 07:22:39;;;;;;;17.53;8.23;;;;;;;;;;5049495;28;20416;-51
2022/07/26 07:25:05;;;;;;;17.13;9.37;;;;;;;;;;5051183;28;20412;-52
2022/07/26 07:27:31;;;;;;;11.30;8.13;;;;;;;;;;5048698;28;20932;-51
2022/07/26 07:29:57;;;;;;;11.80;9.00;;;;;;;;;;5051452;28;20482;-52
2022/07/26 07:32:23;;;;;;;9.80;7.80;;;;;;;;;;5049314;28;20441;-51
2022/07/26 07:34:49;;;;;;;9.93;7.63;;;;;;;;;;5048385;28;20424;-52
2022/07/26 07:37:15;;;;;;;14.63;7.80;;;;;;;;;;5051559;28;20549;-52
2022/07/26 07:39:41;;;;;;;8.80;7.30;;;;;;;;;;5050181;28;20511;-52
2022/07/26 07:42:07;;;;;;;13.80;8.13;;;;;;;;;;5049863;28;20436;-52
2022/07/26 07:44:33;;;;;;;11.03;8.00;;;;;;;;;;5047779;28;20430;-52
2022/07/26 07:46:59;;;;;;;14.27;8.87;;;;;;;;;;5051646;28;20408;-52
2022/07/26 07:49:25;;;;;;;9.17;7.53;;;;;;;;;;5044331;28;20946;-50
2022/07/26 07:51:51;;;;;;;12.53;8.20;;;;;;;;;;5011896;28;20418;-51
2022/07/26 07:54:17;;;;;;;15.70;10.57;;;;;;;;;;5015290;28;20431;-51
2022/07/26 07:56:43;;;;;;;12.27;8.17;;;;;;;;;;5050449;28;20541;-51
2022/07/26 07:59:09;;;;;;;8.83;7.30;;;;;;;;;;5049993;28;20587;-51
2022/07/26 08:01:35;;;;;;;9.37;8.57;;;;;;;;;;5046059;28;20971;-52
2022/07/26 08:04:01;;;;;;;9.43;8.47;;;;;;;;;;5049638;28;20807;-52
2022/07/26 08:06:27;;;;;;;7.83;6.97;;;;;;;;;;5047990;28;20514;-51
2022/07/26 08:08:53;;;;;;;7.50;6.70;;;;;;;;;;5051069;28;20507;-52
2022/07/26 08:11:19;;;;;;;8.70;6.70;;;;;;;;;;5036664;28;20516;-52
2022/07/26 08:13:45;;;;;;;8.90;7.53;;;;;;;;;;5031453;28;20911;-51
2022/07/26 08:16:11;;;;;;;6.47;5.80;;;;;;;;;;5045663;28;20470;-52
2022/07/26 08:18:37;;;;;;;9.43;6.67;;;;;;;;;;5050964;28;20429;-51
2022/07/26 08:21:03;;;;;;;5.93;5.43;;;;;;;;;;5050172;28;20797;-52
2022/07/26 08:23:29;;;;;;;6.10;5.60;;;;;;;;;;5051225;28;20397;-51
2022/07/26 08:25:57;;;;;;;7.47;5.53;;;;;;;;;;5037717;28;20448;-52
2022/07/26 08:28:23;;;;;;;6.50;5.17;;;;;;;;;;5030894;28;20430;-51
2022/07/26 08:30:49;;;;;;;6.77;6.10;;;;;;;;;;5037123;28;20441;-51
2022/07/26 08:33:15;;;;;;;6.80;5.00;;;;;;;;;;5051176;28;20769;-52
2022/07/26 08:35:41;;;;;;;11.23;6.10;;;;;;;;;;5049953;28;20460;-52
2022/07/26 08:38:07;;;;;;;6.07;5.33;;;;;;;;;;5051301;28;20437;-52
2022/07/26 08:40:33;;;;;;;10.00;5.83;;;;;;;;;;5049294;28;20425;-51
2022/07/26 08:43:01;;;;;;;6.37;5.53;;;;;;;;;;5052877;28;20402;-51
2022/07/26 08:45:28;;;;;;;6.20;5.67;;;;;;;;;;5049561;28;20797;-51
2022/07/26 08:47:54;;;;;;;7.20;6.30;;;;;;;;;;5054531;28;20416;-52
2022/07/26 08:50:20;;;;;;;6.37;5.67;;;;;;;;;;5053166;28;20424;-52
2022/07/26 08:52:47;;;;;;;5.83;5.33;;;;;;;;;;5054487;28;20401;-51
2022/07/26 08:55:16;;;;;;;4.77;4.30;;;;;;;;;;5050435;28;20514;-52
2022/07/26 08:57:43;;;;;;;5.00;4.60;;;;;;;;;;5054298;28;20418;-51
2022/07/26 09:00:18;;;;;;;5.10;4.63;;;;;;;;;;5052986;28;20540;-51
2022/07/26 09:02:44;;;;;;;5.73;5.07;;;;;;;;;;5054310;28;20425;-52
2022/07/26 09:05:10;;;;;;;6.23;5.63;;;;;;;;;;5050634;28;20460;-51
2022/07/26 09:07:38;;;;;;;7.07;5.40;;;;;;;;;;5054276;28;20941;-52
2022/07/26 09:10:06;;;;;;;7.60;5.50;;;;;;;;;;5047659;28;20531;-51
2022/07/26 09:12:32;;;;;;;6.60;5.90;;;;;;;;;;5054329;28;20428;-51
2022/07/26 09:14:59;;;;;;;7.40;5.80;;;;;;;;;;5052351;28;20421;-51
2022/07/26 09:17:36;;;;;;;6.37;5.77;;;;;;;;;;5054136;28;20450;-50
2022/07/26 09:20:05;;;;;;;8.50;6.07;;;;;;;;;;5052482;28;20450;-50
2022/07/26 09:22:31;;;;;;;15.30;5.90;;;;;;;;;;5053883;28;20916;-51
2022/07/26 09:24:57;;;;;;;6.17;5.57;;;;;;;;;;5048742;28;20417;-51
2022/07/26 09:27:24;;;;;;;7.10;6.00;;;;;;;;;;5053890;28;20406;-51
2022/07/26 09:29:51;;;;;;;5.73;4.80;;;;;;;;;;5052553;28;20440;-51
2022/07/26 09:32:21;;;;;;;4.30;3.93;;;;;;;;;;5050867;28;20409;-51
2022/07/26 09:34:50;;;;;;;6.37;5.17;;;;;;;;;;5035530;28;20425;-51
2022/07/26 09:37:16;;;;;;;7.53;5.13;;;;;;;;;;5053432;28;20449;-51
2022/07/26 09:39:54;;;;;;;9.70;5.47;;;;;;;;;;5052099;28;21029;-51
2022/07/26 09:42:22;;;;;;;5.70;5.10;;;;;;;;;;5049973;28;20442;-50
2022/07/26 09:44:48;;;;;;;5.63;4.30;;;;;;;;;;5053506;28;20404;-50
2022/07/26 09:47:14;;;;;;;4.73;4.17;;;;;;;;;;5052427;28;20440;-50
2022/07/26 09:49:41;;;;;;;6.40;3.73;;;;;;;;;;5049544;28;20890;-52
2022/07/26 09:52:20;;;;;;;5.77;3.77;;;;;;;;;;5053357;28;20451;-51
2022/07/26 09:54:48;;;;;;;4.00;3.50;;;;;;;;;;5051551;28;20423;-50
2022/07/26 09:57:15;;;;;;;5.40;4.17;;;;;;;;;;5051572;28;20471;-50
2022/07/26 09:59:41;;;;;;;9.23;4.83;;;;;;;;;;5052884;28;20413;-51
2022/07/26 10:02:07;;;;;;;7.37;4.70;;;;;;;;;;5051865;28;20506;-51
2022/07/26 10:04:33;;;;;;;6.83;4.27;;;;;;;;;;5049643;28;20564;-51
2022/07/26 10:07:01;;;;;;;4.50;4.10;;;;;;;;;;5052100;28;20540;-51
2022/07/26 10:09:32;;;;;;;6.30;4.40;;;;;;;;;;5052713;28;20415;-51
2022/07/26 10:12:04;;;;;;;4.10;3.80;;;;;;;;;;5047627;28;20424;-50
2022/07/26 10:14:38;;;;;;;5.27;4.77;;;;;;;;;;5049419;28;20460;-51
2022/07/26 10:17:23;;;;;;;5.47;5.07;;;;;;;;;;5052826;28;20823;-51
2022/07/26 10:19:49;;;;;;;5.10;4.63;;;;;;;;;;5051386;28;20441;-52
2022/07/26 10:22:32;;;;;;;10.90;4.50;;;;;;;;;;5053142;28;20484;-53
2022/07/26 10:25:16;;;;;;;3.47;3.17;;;;;;;;;;5046868;28;20470;-52
2022/07/26 10:27:50;;;;;;;3.70;3.40;;;;;;;;;;5052657;28;20421;-52
2022/07/26 10:30:22;;;;;;;4.00;3.60;;;;;;;;;;5051361;28;20412;-52
2022/07/26 10:32:51;;;;;;;5.17;3.47;;;;;;;;;;5052558;28;20425;-52
2022/07/26 10:35:30;;;;;;;4.17;3.87;;;;;;;;;;5051396;28;20488;-52
2022/07/26 10:37:57;;;;;;;6.10;3.97;;;;;;;;;;5052364;28;20435;-51
2022/07/26 10:40:28;;;;;;;7.23;4.20;;;;;;;;;;5045252;28;20434;-52
2022/07/26 10:43:05;;;;;;;3.87;3.57;;;;;;;;;;5052509;28;20404;-52
2022/07/26 10:45:31;;;;;;;8.40;4.30;;;;;;;;;;5051210;28;20467;-51
2022/07/26 10:48:13;;;;;;;5.47;4.97;;;;;;;;;;5049497;28;20495;-52
2022/07/26 10:50:40;;;;;;;4.63;4.23;;;;;;;;;;5052189;28;20425;-52
2022/07/26 10:53:07;;;;;;;5.33;4.80;;;;;;;;;;5048930;28;20433;-51
2022/07/26 10:55:44;;;;;;;4.50;4.03;;;;;;;;;;5051394;28;20479;-52
2022/07/26 10:58:10;;;;;;;3.63;3.33;;;;;;;;;;5050850;28;20495;-51
2022/07/26 11:00:36;;;;;;;3.10;2.90;;;;;;;;;;5052016;28;20771;-51
2022/07/26 11:03:02;;;;;;;4.23;3.80;;;;;;;;;;5050137;28;20455;-52
2022/07/26 11:05:29;;;;;;;3.40;3.10;;;;;;;;;;5048232;28;20967;-51
2022/07/26 11:08:09;;;;;;;4.50;3.30;;;;;;;;;;5051690;28;20797;-52
2022/07/26 11:10:40;;;;;;;3.77;3.50;;;;;;;;;;5050822;28;20432;-52
2022/07/26 11:13:07;;;;;;;4.30;3.90;;;;;;;;;;5051973;28;20483;-51
2022/07/26 11:15:34;;;;;;;4.87;4.37;;;;;;;;;;5050739;28;20818;-51
2022/07/26 11:18:06;;;;;;;5.03;4.47;;;;;;;;;;5047064;28;20524;-52
2022/07/26 11:20:32;;;;;;;4.97;4.50;;;;;;;;;;5050846;28;20481;-52
2022/07/26 11:22:58;;;;;;;7.20;5.27;;;;;;;;;;5051853;28;20402;-52
2022/07/26 11:25:24;;;;;;;6.10;5.57;;;;;;;;;;5050801;28;21373;-51
2022/07/26 11:28:01;;;;;;;5.37;4.87;;;;;;;;;;5051722;28;20937;-52
2022/07/26 11:30:27;;;;;;;5.50;4.50;;;;;;;;;;5050358;28;20428;-51
2022/07/26 11:32:54;;;;;;;10.70;4.97;;;;;;;;;;5046618;28;20429;-51
2022/07/26 11:35:20;;;;;;;5.37;4.97;;;;;;;;;;5051794;28;20408;-52
2022/07/26 11:37:56;;;;;;;5.90;5.40;;;;;;;;;;5048721;28;20348;-51
2022/07/26 11:40:55;;;;;;;5.60;5.10;;;;;;;;;;5051353;28;20424;-52
2022/07/26 11:43:20;;;;;;;5.03;4.57;;;;;;;;;;5038334;28;20536;-52
2022/07/26 11:45:51;;;;;;;8.03;3.50;;;;;;;;;;5047307;28;20999;-51
2022/07/26 11:48:17;;;;;;;3.77;3.17;;;;;;;;;;5051198;28;20417;-51
2022/07/26 11:50:45;;;;;;;3.03;2.83;;;;;;;;;;5047598;28;20502;-52
2022/07/26 11:53:21;;;;;;;2.10;2.00;;;;;;;;;;5050774;28;20472;-50
2022/07/26 11:55:47;;;;;;;4.67;2.23;;;;;;;;;;5051649;28;20453;-51
2022/07/26 11:58:13;;;;;;;2.80;2.30;;;;;;;;;;5050927;28;20444;-51
2022/07/26 12:00:39;;;;;;;2.60;2.33;;;;;;;;;;5052538;28;20431;-50
2022/07/26 12:03:05;;;;;;;2.00;1.90;;;;;;;;;;5051084;28;20806;-51
2022/07/26 12:05:32;;;;;;;3.30;2.00;;;;;;;;;;5049431;28;20429;-49
2022/07/26 12:07:59;;;;;;;1.63;1.53;;;;;;;;;;5052471;28;20470;-50
2022/07/26 12:10:25;;;;;;;1.70;1.60;;;;;;;;;;5051293;28;20795;-51
2022/07/26 12:13:05;;;;;;;1.63;1.43;;;;;;;;;;5050443;28;20425;-51
2022/07/26 12:15:42;;;;;;;1.67;1.57;;;;;;;;;;5052460;28;20405;-50
2022/07/26 12:18:08;;;;;;;6.63;1.53;;;;;;;;;;5053506;28;20943;-50
2022/07/26 12:20:34;;;;;;;1.50;1.40;;;;;;;;;;5056699;28;20454;-52
2022/07/26 12:23:04;;;;;;;1.23;0.90;;;;;;;;;;5055403;28;20425;-52
2022/07/26 12:25:31;;;;;;;1.90;1.27;;;;;;;;;;5056693;28;20897;-52
2022/07/26 12:27:57;;;;;;;1.93;1.00;;;;;;;;;;5055147;28;20928;-52
2022/07/26 12:30:23;;;;;;;1.03;0.93;;;;;;;;;;5056852;28;21027;-50
2022/07/26 12:32:54;;;;;;;0.80;0.70;;;;;;;;;;5051403;28;20543;-52
2022/07/26 12:35:32;;;;;;;0.90;0.80;;;;;;;;;;5056871;28;20424;-50
2022/07/26 12:37:58;;;;;;;0.90;0.80;;;;;;;;;;5055509;28;20815;-50
2022/07/26 12:40:25;;;;;;;1.00;0.90;;;;;;;;;;5056602;28;21042;-50
2022/07/26 12:42:51;;;;;;;0.80;0.70;;;;;;;;;;5055410;28;20936;-50
2022/07/26 12:45:21;;;;;;;1.00;0.90;;;;;;;;;;5052243;28;20425;-52
2022/07/26 12:47:49;;;;;;;1.60;0.83;;;;;;;;;;5036152;28;20410;-52
2022/07/26 12:50:15;;;;;;;0.80;0.70;;;;;;;;;;5044983;28;20472;-50
2022/07/26 12:52:41;;;;;;;1.10;0.77;;;;;;;;;;5055810;28;20410;-50
2022/07/26 12:55:10;;;;;;;3.53;0.80;;;;;;;;;;5053968;28;20456;-50
2022/07/26 12:57:36;;;;;;;0.97;0.90;;;;;;;;;;5055104;28;20551;-50
2022/07/26 13:00:03;;;;;;;1.30;0.60;;;;;;;;;;5051063;28;20467;-51
2022/07/26 13:02:29;;;;;;;0.80;0.60;;;;;;;;;;5055047;28;20412;-50
2022/07/26 13:04:55;;;;;;;0.90;0.60;;;;;;;;;;5053535;28;20424;-52
2022/07/26 13:07:21;;;;;;;1.40;0.63;;;;;;;;;;5037740;28;20406;-51
2022/07/26 13:09:47;;;;;;;1.20;0.80;;;;;;;;;;5035642;28;20450;-50
2022/07/26 13:12:14;;;;;;;5.83;0.80;;;;;;;;;;5036168;28;20974;-49
2022/07/26 13:14:40;;;;;;;1.00;0.80;;;;;;;;;;5048572;28;20429;-50
2022/07/26 13:17:07;;;;;;;0.90;0.80;;;;;;;;;;5054716;28;20948;-50
2022/07/26 13:19:33;;;;;;;2.60;1.20;;;;;;;;;;5053132;28;20453;-51
2022/07/26 13:22:00;;;;;;;1.37;1.10;;;;;;;;;;5055206;28;20404;-50
2022/07/26 13:24:26;;;;;;;1.23;1.13;;;;;;;;;;5050795;28;20421;-49
2022/07/26 13:26:52;;;;;;;1.20;1.10;;;;;;;;;;5052936;28;20430;-50
2022/07/26 13:29:19;;;;;;;1.50;1.40;;;;;;;;;;5049499;28;20452;-49
2022/07/26 13:31:45;;;;;;;1.30;1.20;;;;;;;;;;5054844;28;20469;-50
2022/07/26 13:34:11;;;;;;;1.20;1.10;;;;;;;;;;5053453;28;20441;-49
2022/07/26 13:36:37;;;;;;;1.33;1.23;;;;;;;;;;5054515;28;20447;-49
2022/07/26 13:39:04;;;;;;;1.33;1.23;;;;;;;;;;5051689;28;20809;-52
2022/07/26 13:41:30;;;;;;;1.33;1.00;;;;;;;;;;5052100;28;20467;-51
2022/07/26 13:43:56;;;;;;;1.63;1.10;;;;;;;;;;5053395;28;20398;-52
2022/07/26 13:46:25;;;;;;;1.67;0.90;;;;;;;;;;5051637;28;20627;-51
2022/07/26 13:48:52;;;;;;;2.20;0.83;;;;;;;;;;5055262;28;20486;-50
2022/07/26 13:51:18;;;;;;;1.00;0.90;;;;;;;;;;5052073;28;20516;-51
2022/07/26 13:53:45;;;;;;;1.10;0.93;;;;;;;;;;5050109;28;20436;-50
2022/07/26 13:56:10;;;;;;;0.90;0.80;;;;;;;;;;5051413;28;20487;-52
2022/07/26 13:58:36;;;;;;;1.57;0.97;;;;;;;;;;5052807;28;20929;-50
2022/07/26 14:01:03;;;;;;;0.80;0.80;;;;;;;;;;5052235;28;20428;-49
2022/07/26 14:03:29;;;;;;;1.13;0.80;;;;;;;;;;5036261;28;20520;-50
2022/07/26 14:05:55;;;;;;;1.90;0.90;;;;;;;;;;5045403;28;20432;-49
2022/07/26 14:08:21;;;;;;;1.30;1.00;;;;;;;;;;5052720;28;20789;-50
2022/07/26 14:10:47;;;;;;;1.30;0.87;;;;;;;;;;5050855;28;20429;-50
2022/07/26 14:13:13;;;;;;;1.13;1.03;;;;;;;;;;5052988;28;20852;-51
2022/07/26 14:15:39;;;;;;;1.10;0.90;;;;;;;;;;5051983;28;20444;-51
2022/07/26 14:18:05;;;;;;;1.30;1.00;;;;;;;;;;5049721;28;20438;-51
2022/07/26 14:20:31;;;;;;;0.80;0.80;;;;;;;;;;5051659;28;21102;-51
2022/07/26 14:22:57;;;;;;;0.93;0.80;;;;;;;;;;5052659;28;20409;-50
2022/07/26 14:25:24;;;;;;;0.80;0.80;;;;;;;;;;5051545;28;20420;-50
2022/07/26 14:27:51;;;;;;;0.80;0.70;;;;;;;;;;5052670;28;20944;-52
2022/07/26 14:30:17;;;;;;;2.00;0.90;;;;;;;;;;5046879;28;20429;-50
2022/07/26 14:32:43;;;;;;;1.10;0.80;;;;;;;;;;5048639;28;20437;-51
2022/07/26 14:35:09;;;;;;;1.20;1.10;;;;;;;;;;5051287;28;20920;-50
2022/07/26 14:37:35;;;;;;;1.00;0.90;;;;;;;;;;5052540;28;20881;-51
2022/07/26 14:40:02;;;;;;;2.73;1.00;;;;;;;;;;5050933;28;20983;-51
2022/07/26 14:42:28;;;;;;;0.80;0.70;;;;;;;;;;5052536;28;20401;-50